Aviation Digital Data Service (ADDS)

Output produced by TAFs form (0232 UTC 23 January 2017)
found at http://aviationweather.gov/adds/tafs/
 
KRIL 222320Z 2300/2324 27003KT P6SM VCSH BKN080 
     FM230100 18005KT P6SM VCSH OVC070 
     FM230300 VRB03KT P6SM VCSH OVC050 
     FM230900 24004KT 3SM -SHSN BR OVC030 
     FM231500 28009KT 5SM -SHSN BR OVC015 
     FM231800 26012G20KT 3SM -SN BR OVC010